Time;durP1;ratioP1;P1;durP2;ratioP2;P2;SDS_P1;SDS_P2;PMS_P1;PMS_P2;Temp;Humidity;BMP_temperature;BMP_pressure;BME280_temperature;BME280_humidity;BME280_pressure;Samples;Min_cycle;Max_cycle;Signal;HPM_P1;HPM_P2
2022/12/18 00:00:40;;;;;;;48.17;30.30;;;;;;;-10.44;100.00;96758.75;5104669;28;24430;-72
2022/12/18 00:03:07;;;;;;;45.53;30.93;;;;;;;-10.33;100.00;96766.63;5108221;28;24968;-72
2022/12/18 00:05:33;;;;;;;50.47;34.15;;;;;;;-10.28;100.00;96757.59;5107289;28;24432;-72
2022/12/18 00:08:00;;;;;;;54.80;35.92;;;;;;;-10.31;100.00;96755.00;5100232;28;24453;-72
2022/12/18 00:10:28;;;;;;;54.13;36.83;;;;;;;-10.43;100.00;96767.97;5102924;28;24979;-72
2022/12/18 00:12:55;;;;;;;57.75;36.50;;;;;;;-10.41;100.00;96763.03;5104961;28;24448;-72
2022/12/18 00:15:21;;;;;;;72.47;39.58;;;;;;;-10.26;100.00;96769.38;5100804;28;24429;-72
2022/12/18 00:17:48;;;;;;;58.27;39.70;;;;;;;-10.24;100.00;96765.22;5104884;28;24465;-72
2022/12/18 00:20:14;;;;;;;56.97;38.75;;;;;;;-10.58;100.00;96768.28;5091403;28;24466;-72
2022/12/18 00:22:41;;;;;;;53.92;37.05;;;;;;;-10.98;100.00;96768.53;5100702;28;24461;-72
2022/12/18 00:25:08;;;;;;;49.97;35.03;;;;;;;-11.01;100.00;96769.28;5100004;28;24433;-72
2022/12/18 00:27:36;;;;;;;55.03;34.75;;;;;;;-10.80;100.00;96773.34;5107035;28;24444;-72
2022/12/18 00:30:03;;;;;;;54.88;34.65;;;;;;;-10.61;100.00;96784.84;5095369;28;24975;-73
2022/12/18 00:32:29;;;;;;;47.58;34.03;;;;;;;-10.56;100.00;96779.22;5102584;28;25340;-72
2022/12/18 00:34:56;;;;;;;49.05;31.60;;;;;;;-10.54;100.00;96776.75;5102856;28;24438;-72
2022/12/18 00:37:22;;;;;;;53.20;33.40;;;;;;;-10.44;100.00;96767.91;5106793;28;24808;-72
2022/12/18 00:39:50;;;;;;;45.75;31.63;;;;;;;-10.39;100.00;96769.75;5108966;28;24441;-72
2022/12/18 00:45:02;;;;;;;48.75;30.63;;;;;;;-10.72;100.00;96785.31;5088323;28;24495;-72
2022/12/18 00:47:29;;;;;;;41.13;27.90;;;;;;;-10.66;100.00;96778.84;5106081;28;24430;-72
2022/12/18 00:49:55;;;;;;;36.28;26.83;;;;;;;-10.53;100.00;96776.81;5100272;28;24434;-72
2022/12/18 00:52:22;;;;;;;40.53;27.88;;;;;;;-10.49;100.00;96783.63;5099409;28;24437;-72
2022/12/18 00:54:48;;;;;;;57.55;33.38;;;;;;;-10.41;100.00;96773.88;5093204;28;24434;-72
2022/12/18 00:57:15;;;;;;;52.28;31.98;;;;;;;-10.63;100.00;96776.44;5099773;28;24988;-72
2022/12/18 00:59:41;;;;;;;48.97;32.67;;;;;;;-10.62;100.00;96784.00;5098960;28;24441;-72
2022/12/18 01:02:09;;;;;;;52.90;34.05;;;;;;;-10.79;100.00;96775.91;5101086;28;24433;-72
2022/12/18 01:04:36;;;;;;;51.15;34.40;;;;;;;-10.86;100.00;96778.13;5099626;28;24441;-72
2022/12/18 01:07:02;;;;;;;63.85;36.72;;;;;;;-10.83;100.00;96780.72;5095229;28;24434;-72
2022/12/18 01:09:29;;;;;;;56.95;37.22;;;;;;;-10.81;100.00;96780.00;5094833;28;24449;-72
2022/12/18 01:11:55;;;;;;;54.40;35.47;;;;;;;-10.79;100.00;96770.91;5101256;28;24456;-73
2022/12/18 01:14:22;;;;;;;55.35;34.72;;;;;;;-10.73;100.00;96771.09;5104917;28;24441;-72
2022/12/18 01:16:48;;;;;;;52.07;32.70;;;;;;;-10.75;100.00;96771.88;5095067;28;24441;-72
2022/12/18 01:19:16;;;;;;;54.15;35.28;;;;;;;-10.68;100.00;96768.75;5094752;28;24433;-72
2022/12/18 01:21:43;;;;;;;61.95;38.50;;;;;;;-10.52;99.96;96763.50;5101695;28;24440;-72
2022/12/18 01:24:12;;;;;;;62.05;38.28;;;;;;;-10.79;100.00;96768.41;5098572;28;24464;-72
2022/12/18 01:26:39;;;;;;;53.53;34.25;;;;;;;-10.95;100.00;96768.63;5096349;28;24441;-72
2022/12/18 01:29:05;;;;;;;55.78;33.67;;;;;;;-11.13;100.00;96775.47;5097920;28;24455;-72
2022/12/18 01:31:34;;;;;;;54.92;33.35;;;;;;;-10.98;100.00;96768.53;5106703;28;24800;-72
2022/12/18 01:34:02;;;;;;;57.58;35.92;;;;;;;-10.73;100.00;96763.59;5096418;28;24448;-72
2022/12/18 01:36:31;;;;;;;51.15;34.10;;;;;;;-10.74;100.00;96781.06;5101614;28;24429;-72
2022/12/18 01:39:00;;;;;;;51.25;34.10;;;;;;;-10.92;100.00;96780.41;5101473;28;24437;-72
2022/12/18 01:42:01;;;;;;;54.45;32.22;;;;;;;-10.97;100.00;96780.25;5103084;28;25025;-72
2022/12/18 01:44:54;;;;;;;61.00;35.22;;;;;;;-10.68;99.64;96778.78;5096880;28;24521;-72
2022/12/18 01:47:25;;;;;;;51.35;33.45;;;;;;;-10.80;98.30;96774.19;5090411;28;24438;-72
2022/12/18 01:49:52;;;;;;;50.30;32.10;;;;;;;-11.05;100.00;96767.47;5092570;28;24459;-72
2022/12/18 01:52:22;;;;;;;51.75;31.40;;;;;;;-11.15;100.00;96777.94;5099269;28;24440;-72
2022/12/18 01:54:50;;;;;;;40.70;29.90;;;;;;;-11.16;100.00;96776.19;5097263;28;24434;-73
2022/12/18 01:57:17;;;;;;;51.67;28.17;;;;;;;-10.98;100.00;96774.38;5098384;28;24430;-72
2022/12/18 01:59:48;;;;;;;41.90;28.35;;;;;;;-10.94;100.00;96779.50;5096076;28;24445;-72
2022/12/18 02:02:16;;;;;;;37.38;27.25;;;;;;;-10.78;100.00;96777.59;5098187;28;24797;-72
2022/12/18 02:04:43;;;;;;;41.63;27.37;;;;;;;-10.70;100.00;96772.03;5089351;28;24442;-72
2022/12/18 02:07:22;;;;;;;44.38;28.15;;;;;;;-10.58;100.00;96777.44;5096803;28;24477;-72
2022/12/18 02:09:58;;;;;;;37.17;25.25;;;;;;;-10.57;100.00;96771.63;5107536;28;24971;-71
2022/12/18 02:12:30;;;;;;;47.35;28.23;;;;;;;-10.64;100.00;96768.09;5097568;28;24440;-71
2022/12/18 02:15:03;;;;;;;40.47;26.58;;;;;;;-10.46;100.00;96769.50;5100111;28;24445;-71
2022/12/18 02:17:37;;;;;;;37.72;24.42;;;;;;;-10.38;100.00;96765.59;5101066;28;24449;-72
2022/12/18 02:20:13;;;;;;;50.13;26.35;;;;;;;-10.40;100.00;96768.06;5090697;28;24430;-71
2022/12/18 02:22:51;;;;;;;40.17;25.90;;;;;;;-10.74;100.00;96766.91;5092987;28;24442;-71
2022/12/18 02:25:32;;;;;;;32.60;23.88;;;;;;;-10.91;100.00;96774.59;5094008;28;24480;-71
2022/12/18 02:28:02;;;;;;;44.90;26.48;;;;;;;-11.00;100.00;96777.63;5091396;28;24429;-73
2022/12/18 02:30:32;;;;;;;43.85;26.20;;;;;;;-10.94;100.00;96775.34;5107176;28;24443;-72
2022/12/18 02:33:01;;;;;;;44.67;28.48;;;;;;;-10.96;100.00;96779.44;5094171;28;25013;-72
2022/12/18 02:35:31;;;;;;;48.88;27.27;;;;;;;-10.77;100.00;96780.97;5098606;28;24448;-72
2022/12/18 02:37:58;;;;;;;44.03;27.30;;;;;;;-10.67;100.00;96779.66;5107991;28;24440;-72
2022/12/18 02:40:28;;;;;;;43.10;25.55;;;;;;;-10.58;100.00;96774.94;5101101;28;24988;-72
2022/12/18 02:42:54;;;;;;;36.72;25.17;;;;;;;-10.54;100.00;96774.25;5106711;28;24441;-72
2022/12/18 02:45:22;;;;;;;38.53;25.13;;;;;;;-10.99;100.00;96774.34;5105170;28;24471;-72
2022/12/18 02:47:50;;;;;;;32.58;24.50;;;;;;;-11.09;100.00;96780.63;5094776;28;24445;-72
2022/12/18 02:50:23;;;;;;;42.80;23.70;;;;;;;-11.13;100.00;96773.81;5107816;28;24465;-72
2022/12/18 02:52:57;;;;;;;31.52;22.88;;;;;;;-11.27;100.00;96773.34;5099210;28;24447;-72
2022/12/18 02:55:32;;;;;;;34.13;25.10;;;;;;;-11.37;100.00;96775.44;5102985;28;24437;-72
2022/12/18 02:58:04;;;;;;;46.92;30.58;;;;;;;-11.25;100.00;96775.88;5084767;28;25069;-72
2022/12/18 03:00:38;;;;;;;37.70;26.27;;;;;;;-11.06;100.00;96778.25;5097630;28;24422;-72
2022/12/18 03:03:09;;;;;;;30.15;21.98;;;;;;;-10.83;100.00;96770.72;5094664;28;24437;-72
2022/12/18 03:05:42;;;;;;;30.13;20.33;;;;;;;-10.60;100.00;96772.41;5100650;28;24433;-72
2022/12/18 03:08:13;;;;;;;25.60;19.08;;;;;;;-10.51;100.00;96770.19;5100557;28;24429;-72
2022/12/18 03:10:45;;;;;;;30.95;18.83;;;;;;;-10.58;100.00;96787.47;5097385;28;24512;-72
2022/12/18 03:13:18;;;;;;;28.50;18.75;;;;;;;-10.62;100.00;96791.50;5102797;28;25017;-72
2022/12/18 03:15:49;;;;;;;24.27;18.35;;;;;;;-10.70;100.00;96787.88;5085558;28;24462;-72
2022/12/18 03:18:21;;;;;;;28.27;18.23;;;;;;;-10.73;100.00;96787.78;5089240;28;24437;-72
2022/12/18 03:20:50;;;;;;;23.55;18.08;;;;;;;-10.56;100.00;96785.88;5102620;28;24784;-72
2022/12/18 03:23:21;;;;;;;26.27;18.92;;;;;;;-10.68;100.00;96788.78;5094442;28;24991;-72
2022/12/18 03:25:50;;;;;;;29.38;20.38;;;;;;;-10.59;100.00;96789.13;5097798;28;24430;-72
2022/12/18 03:28:20;;;;;;;27.27;18.33;;;;;;;-10.72;100.00;96797.81;5103100;28;24495;-72
2022/12/18 03:30:53;;;;;;;24.25;17.88;;;;;;;-10.75;100.00;96795.25;5102628;28;24976;-72
2022/12/18 03:33:25;;;;;;;28.83;19.60;;;;;;;-10.67;100.00;96795.50;5096851;28;24448;-72
2022/12/18 03:35:51;;;;;;;28.38;18.02;;;;;;;-10.51;100.00;96790.22;5102024;28;24430;-72
2022/12/18 03:38:18;;;;;;;31.65;18.45;;;;;;;-10.64;100.00;96793.13;5104937;28;24571;-72
2022/12/18 03:40:57;;;;;;;23.42;17.88;;;;;;;-10.86;100.00;96795.63;5096287;27;24449;-72
2022/12/18 03:43:35;;;;;;;26.20;18.02;;;;;;;-11.12;100.00;96795.56;5078911;28;24451;-72
2022/12/18 03:46:08;;;;;;;28.47;18.33;;;;;;;-11.05;100.00;96795.00;5088940;28;24812;-72
2022/12/18 03:48:42;;;;;;;27.58;17.52;;;;;;;-10.86;100.00;96783.13;5092065;28;24830;-72
2022/12/18 03:51:12;;;;;;;22.00;16.75;;;;;;;-10.70;100.00;96782.88;5096178;28;24465;-72
2022/12/18 03:53:46;;;;;;;24.90;17.13;;;;;;;-10.55;100.00;96788.41;5105986;28;24441;-73
2022/12/18 03:56:16;;;;;;;23.38;17.30;;;;;;;-10.48;100.00;96787.00;5100717;28;24422;-72
2022/12/18 03:58:44;;;;;;;23.77;17.67;;;;;;;-10.71;100.00;96786.19;5098548;28;24434;-72
2022/12/18 04:01:16;;;;;;;26.85;18.25;;;;;;;-10.86;100.00;96786.50;5104380;28;24796;-72
2022/12/18 04:03:44;;;;;;;21.33;17.65;;;;;;;-10.88;100.00;96783.06;5102041;28;24448;-72
2022/12/18 04:06:12;;;;;;;24.90;18.23;;;;;;;-10.78;100.00;96781.75;5104155;28;24808;-72
2022/12/18 04:08:40;;;;;;;25.98;18.85;;;;;;;-10.78;100.00;96781.75;5097805;28;24443;-72
2022/12/18 04:11:06;;;;;;;25.25;19.10;;;;;;;-10.92;100.00;96780.41;5109433;28;24440;-72
2022/12/18 04:13:35;;;;;;;25.47;18.67;;;;;;;-10.99;100.00;96787.69;5101096;28;24533;-72
2022/12/18 04:16:02;;;;;;;24.23;18.87;;;;;;;-11.07;100.00;96793.22;5096427;28;24520;-72
2022/12/18 04:18:30;;;;;;;30.10;19.45;;;;;;;-11.17;100.00;96788.66;5090847;28;24442;-72
2022/12/18 04:20:56;;;;;;;24.80;19.08;;;;;;;-11.06;100.00;96790.75;5099169;28;24434;-72
2022/12/18 04:23:23;;;;;;;29.30;20.50;;;;;;;-11.15;100.00;96799.59;5099365;28;24445;-72
2022/12/18 04:25:49;;;;;;;26.95;18.23;;;;;;;-11.02;100.00;96786.72;5101321;28;24441;-72
2022/12/18 04:28:16;;;;;;;27.73;19.58;;;;;;;-10.97;100.00;96792.75;5103749;28;24437;-73
2022/12/18 04:30:42;;;;;;;26.15;18.48;;;;;;;-10.90;100.00;96784.69;5102940;28;24482;-72
2022/12/18 04:33:09;;;;;;;26.55;19.42;;;;;;;-10.79;100.00;96778.41;5102091;28;24480;-73
2022/12/18 04:35:37;;;;;;;26.10;19.05;;;;;;;-10.88;100.00;96782.22;5096869;28;24434;-73
2022/12/18 04:38:04;;;;;;;30.52;19.80;;;;;;;-10.79;100.00;96770.03;5103498;28;24433;-72
2022/12/18 04:40:30;;;;;;;28.80;18.50;;;;;;;-10.56;100.00;96773.38;5096941;28;24987;-72
2022/12/18 04:42:57;;;;;;;28.67;20.00;;;;;;;-10.43;100.00;96777.13;5104819;28;24446;-72
2022/12/18 04:45:23;;;;;;;24.10;18.60;;;;;;;-10.39;100.00;96781.44;5098915;28;24849;-72
2022/12/18 04:47:50;;;;;;;28.45;19.52;;;;;;;-10.30;100.00;96780.09;5092450;28;24438;-72
2022/12/18 04:50:16;;;;;;;26.15;19.13;;;;;;;-10.35;100.00;96775.72;5100706;28;25033;-72
2022/12/18 04:52:44;;;;;;;25.38;18.70;;;;;;;-10.21;100.00;96784.53;5103097;28;24441;-72
2022/12/18 04:55:11;;;;;;;28.58;19.95;;;;;;;-10.36;100.00;96789.91;5106984;28;24532;-72
2022/12/18 04:57:37;;;;;;;24.45;20.17;;;;;;;-10.33;100.00;96790.03;5096814;28;24439;-72
2022/12/18 05:00:05;;;;;;;29.15;22.48;;;;;;;-10.37;100.00;96789.88;5086545;28;24437;-72
2022/12/18 05:02:32;;;;;;;37.45;25.42;;;;;;;-10.37;100.00;96784.84;5109001;28;24518;-72
2022/12/18 05:04:59;;;;;;;38.95;28.63;;;;;;;-10.38;100.00;96790.66;5084153;28;25029;-72
2022/12/18 05:07:25;;;;;;;44.05;27.13;;;;;;;-10.27;100.00;96791.88;5099041;28;24440;-72
2022/12/18 05:09:53;;;;;;;38.80;25.70;;;;;;;-10.36;100.00;96789.06;5107141;28;24477;-72
2022/12/18 05:12:20;;;;;;;31.85;24.02;;;;;;;-10.34;100.00;96792.47;5109591;28;24449;-72
2022/12/18 05:14:46;;;;;;;34.47;23.42;;;;;;;-10.23;100.00;96794.50;5101494;27;24442;-72
2022/12/18 05:17:13;;;;;;;34.60;24.35;;;;;;;-10.32;100.00;96794.22;5101571;28;24442;-72
2022/12/18 05:19:39;;;;;;;37.53;24.67;;;;;;;-10.28;100.00;96786.00;5101322;28;24970;-72
2022/12/18 05:22:05;;;;;;;33.08;23.92;;;;;;;-10.30;100.00;96776.75;5085534;28;24442;-72
2022/12/18 05:24:32;;;;;;;33.38;24.13;;;;;;;-10.24;100.00;96786.94;5102797;28;25005;-72
2022/12/18 05:27:00;;;;;;;35.90;23.77;;;;;;;-10.29;100.00;96781.81;5100946;28;24499;-72
2022/12/18 05:29:27;;;;;;;43.95;25.10;;;;;;;-10.25;100.00;96791.09;5105762;28;24480;-72
2022/12/18 05:31:53;;;;;;;35.10;25.15;;;;;;;-10.15;100.00;96781.41;5100080;27;24433;-73
2022/12/18 05:34:20;;;;;;;38.10;24.92;;;;;;;-10.07;100.00;96785.00;5100627;28;24445;-72
2022/12/18 05:36:46;;;;;;;35.60;24.00;;;;;;;-10.08;100.00;96781.66;5101925;28;24979;-72
2022/12/18 05:39:13;;;;;;;34.53;23.92;;;;;;;-9.95;100.00;96792.06;5099080;28;24429;-72
2022/12/18 05:41:39;;;;;;;33.75;24.00;;;;;;;-9.70;100.00;96779.53;5098390;28;24531;-72
2022/12/18 05:44:07;;;;;;;38.47;26.33;;;;;;;-9.66;100.00;96780.47;5101851;28;24445;-72
2022/12/18 05:46:33;;;;;;;42.22;26.23;;;;;;;-9.80;100.00;96785.03;5100040;28;24433;-72
2022/12/18 05:49:01;;;;;;;38.40;26.45;;;;;;;-9.80;100.00;96787.53;5101337;27;25009;-72
2022/12/18 05:51:28;;;;;;;37.42;26.25;;;;;;;-9.67;100.00;96782.13;5100326;28;24615;-72
2022/12/18 05:53:54;;;;;;;43.78;27.77;;;;;;;-9.63;100.00;96793.09;5103785;28;24449;-72
2022/12/18 05:56:22;;;;;;;41.03;27.67;;;;;;;-9.65;100.00;96779.66;5108895;28;24422;-72
2022/12/18 05:58:53;;;;;;;40.63;27.83;;;;;;;-9.62;100.00;96779.75;5100224;28;24434;-72
2022/12/18 06:01:23;;;;;;;41.70;27.33;;;;;;;-9.54;100.00;96778.34;5086984;28;24441;-71
2022/12/18 06:03:49;;;;;;;44.47;28.70;;;;;;;-9.51;100.00;96786.81;5089360;28;24852;-72
2022/12/18 06:06:17;;;;;;;46.08;30.30;;;;;;;-9.48;100.00;96788.56;5093356;28;24434;-72
2022/12/18 06:08:44;;;;;;;42.17;29.67;;;;;;;-9.48;100.00;96798.59;5092293;28;25081;-72
2022/12/18 06:11:11;;;;;;;55.25;31.02;;;;;;;-9.42;100.00;96797.91;5087222;28;24454;-71
2022/12/18 06:13:37;;;;;;;45.35;30.23;;;;;;;-9.42;100.00;96798.75;5097832;28;24436;-73
2022/12/18 06:16:05;;;;;;;44.10;29.83;;;;;;;-9.32;100.00;96803.25;5102552;28;24929;-73
2022/12/18 06:18:33;;;;;;;43.65;29.50;;;;;;;-9.22;100.00;96806.06;5106554;28;24434;-72
2022/12/18 06:21:01;;;;;;;46.30;30.93;;;;;;;-9.21;100.00;96812.78;5085741;28;25016;-72
2022/12/18 06:23:28;;;;;;;43.28;30.60;;;;;;;-9.14;100.00;96813.00;5089731;28;24846;-72
2022/12/18 06:25:54;;;;;;;48.03;30.58;;;;;;;-9.10;100.00;96807.28;5100550;28;24438;-72
2022/12/18 06:28:21;;;;;;;45.70;30.70;;;;;;;-9.04;100.00;96806.63;5106542;28;24510;-72
2022/12/18 06:30:49;;;;;;;47.33;28.95;;;;;;;-8.94;100.00;96810.22;5097815;28;25000;-72
2022/12/18 06:33:16;;;;;;;44.90;30.93;;;;;;;-8.87;100.00;96810.44;5108003;28;25154;-73
2022/12/18 06:35:44;;;;;;;46.13;31.67;;;;;;;-8.90;100.00;96814.53;5098269;28;24433;-73
2022/12/18 06:38:10;;;;;;;45.70;30.92;;;;;;;-8.88;100.00;96806.25;5102925;28;24429;-73
2022/12/18 06:40:38;;;;;;;52.80;31.57;;;;;;;-8.95;100.00;96811.06;5103466;28;24430;-73
2022/12/18 06:43:05;;;;;;;56.07;32.37;;;;;;;-8.95;100.00;96811.91;5108764;28;24466;-73
2022/12/18 06:45:31;;;;;;;54.83;35.65;;;;;;;-8.87;100.00;96817.97;5093940;28;24434;-72
2022/12/18 06:47:58;;;;;;;71.00;38.42;;;;;;;-8.86;100.00;96819.72;5089846;28;24441;-72
2022/12/18 06:50:24;;;;;;;57.58;35.92;;;;;;;-8.86;100.00;96813.81;5098771;28;24833;-73
2022/12/18 06:52:52;;;;;;;48.20;33.40;;;;;;;-8.81;100.00;96829.88;5088649;28;24445;-72
2022/12/18 06:55:19;;;;;;;74.30;36.38;;;;;;;-8.72;100.00;96832.63;5100792;28;24906;-73
2022/12/18 06:57:45;;;;;;;68.63;41.15;;;;;;;-8.81;100.00;96830.72;5098101;28;24442;-72
2022/12/18 07:00:13;;;;;;;49.15;32.67;;;;;;;-8.80;100.00;96836.59;5089354;28;24480;-72
2022/12/18 07:02:40;;;;;;;44.88;31.30;;;;;;;-8.75;100.00;96832.53;5099649;28;25080;-72
2022/12/18 07:05:07;;;;;;;50.75;30.77;;;;;;;-8.75;100.00;96840.06;5105363;28;24426;-72
2022/12/18 07:07:34;;;;;;;41.42;29.25;;;;;;;-8.72;100.00;96842.69;5106370;28;25087;-72
2022/12/18 07:10:02;;;;;;;44.70;30.20;;;;;;;-8.67;100.00;96843.69;5099347;28;24442;-72
2022/12/18 07:12:29;;;;;;;41.15;29.17;;;;;;;-8.66;100.00;96839.50;5102016;28;24445;-72
2022/12/18 07:14:55;;;;;;;49.50;30.85;;;;;;;-8.70;100.00;96836.06;5108439;28;24436;-72
2022/12/18 07:17:22;;;;;;;43.63;29.65;;;;;;;-8.61;100.00;96840.47;5098475;28;24469;-72
2022/12/18 07:19:48;;;;;;;47.75;31.17;;;;;;;-8.63;100.00;96835.44;5092863;28;24434;-72
2022/12/18 07:22:15;;;;;;;46.17;31.10;;;;;;;-8.58;100.00;96851.47;5113299;28;24985;-72
2022/12/18 07:24:41;;;;;;;44.53;32.15;;;;;;;-8.55;100.00;96846.53;5097471;28;24436;-72
2022/12/18 07:27:09;;;;;;;48.03;33.63;;;;;;;-8.55;100.00;96849.06;5104300;28;25012;-73
2022/12/18 07:29:36;;;;;;;48.95;33.05;;;;;;;-8.45;100.00;96836.72;5107384;28;24991;-73
2022/12/18 07:32:02;;;;;;;50.92;34.80;;;;;;;-8.47;100.00;96829.16;5106628;28;24449;-72
2022/12/18 07:34:29;;;;;;;46.97;31.67;;;;;;;-8.42;100.00;96840.19;5106230;28;25045;-73
2022/12/18 07:36:55;;;;;;;46.13;30.65;;;;;;;-8.39;100.00;96834.41;5108628;28;24434;-72
2022/12/18 07:39:22;;;;;;;44.13;31.02;;;;;;;-8.29;100.00;96837.19;5094505;28;24427;-72
2022/12/18 07:42:30;;;;;;;48.63;30.15;;;;;;;-8.32;100.00;96841.28;5100357;28;24430;-72
2022/12/18 07:44:37;;;;;;;47.63;31.02;;;;;;;-8.29;100.00;96843.88;5100897;28;24442;-73
2022/12/18 07:47:04;;;;;;;45.00;29.17;;;;;;;-8.35;100.00;96839.50;5101228;27;24433;-73
2022/12/18 07:49:30;;;;;;;46.95;31.10;;;;;;;-8.29;100.00;96842.22;5107933;28;25177;-73
2022/12/18 07:51:58;;;;;;;52.23;30.40;;;;;;;-8.28;100.00;96853.09;5107653;28;24553;-72
2022/12/18 07:54:25;;;;;;;44.53;30.83;;;;;;;-8.32;100.00;96851.31;5099643;28;25086;-72
2022/12/18 07:56:51;;;;;;;45.58;31.20;;;;;;;-8.24;100.00;96854.03;5099722;28;24829;-72
2022/12/18 07:59:18;;;;;;;40.97;28.98;;;;;;;-8.13;100.00;96851.00;5107051;28;24433;-72
2022/12/18 08:01:46;;;;;;;43.45;30.17;;;;;;;-8.16;100.00;96855.94;5102835;28;24804;-72
2022/12/18 08:04:12;;;;;;;42.50;30.65;;;;;;;-8.17;100.00;96861.78;5096741;28;24441;-72
2022/12/18 08:06:39;;;;;;;41.63;29.50;;;;;;;-8.14;100.00;96850.97;5103551;28;24963;-73
2022/12/18 08:09:06;;;;;;;44.97;30.52;;;;;;;-8.10;100.00;96845.22;5105926;28;24441;-69
2022/12/18 08:11:33;;;;;;;45.17;30.95;;;;;;;-8.05;100.00;96857.06;5102267;28;24485;-73
2022/12/18 08:13:59;;;;;;;43.55;30.77;;;;;;;-7.97;100.00;96852.28;5091356;28;24513;-73
2022/12/18 08:16:26;;;;;;;45.85;30.83;;;;;;;-7.87;100.00;96853.34;5105947;28;24437;-73
2022/12/18 08:18:54;;;;;;;49.75;30.58;;;;;;;-7.86;100.00;96863.47;5099944;28;24544;-73
2022/12/18 08:21:24;;;;;;;45.60;29.73;;;;;;;-7.73;100.00;96856.22;5104788;28;24588;-73
2022/12/18 08:23:52;;;;;;;42.17;30.77;;;;;;;-7.66;100.00;96858.09;5102363;28;24444;-73
2022/12/18 08:26:19;;;;;;;48.20;32.35;;;;;;;-7.72;100.00;96852.91;5106023;28;24487;-73
2022/12/18 08:28:45;;;;;;;44.10;31.80;;;;;;;-7.69;100.00;96848.78;5108462;28;24456;-73
2022/12/18 08:31:12;;;;;;;47.28;31.92;;;;;;;-7.59;100.00;96858.28;5093893;28;24978;-72
2022/12/18 08:33:40;;;;;;;47.22;30.92;;;;;;;-7.60;100.00;96848.16;5105672;28;25069;-72
2022/12/18 08:36:10;;;;;;;53.42;31.48;;;;;;;-7.62;100.00;96850.66;5106261;28;24431;-72
2022/12/18 08:38:37;;;;;;;48.65;30.27;;;;;;;-7.56;100.00;96848.31;5105932;28;24434;-72
2022/12/18 08:41:05;;;;;;;44.40;32.08;;;;;;;-7.57;100.00;96850.75;5098496;28;24430;-73
2022/12/18 08:46:16;;;;;;;47.65;32.40;;;;;;;-7.49;100.00;96843.41;5101489;28;24432;-72
2022/12/18 08:48:44;;;;;;;44.93;31.90;;;;;;;-7.46;100.00;96833.41;5104324;28;24441;-72
2022/12/18 08:51:12;;;;;;;47.03;31.53;;;;;;;-7.38;100.00;96831.94;5082679;28;24544;-73
2022/12/18 08:53:39;;;;;;;50.30;33.03;;;;;;;-7.33;100.00;96831.22;5107278;28;24453;-73
2022/12/18 08:56:06;;;;;;;47.22;31.10;;;;;;;-7.21;100.00;96829.81;5088219;28;24442;-73
2022/12/18 08:58:33;;;;;;;58.28;33.15;;;;;;;-7.16;100.00;96825.72;5091015;28;24449;-72
2022/12/18 09:01:01;;;;;;;45.78;33.20;;;;;;;-7.11;100.00;96831.72;5094811;28;24804;-72
2022/12/18 09:03:27;;;;;;;48.70;33.53;;;;;;;-6.99;100.00;96831.16;5094623;28;24528;-72
2022/12/18 09:05:54;;;;;;;49.80;32.03;;;;;;;-6.86;100.00;96833.97;5106964;28;24838;-72
2022/12/18 09:08:22;;;;;;;45.75;32.67;;;;;;;-6.90;100.00;96834.72;5103661;28;24429;-73
2022/12/18 09:10:50;;;;;;;48.58;32.55;;;;;;;-6.80;100.00;96832.41;5099313;28;24461;-73
2022/12/18 09:13:18;;;;;;;45.67;32.20;;;;;;;-6.70;100.00;96821.72;5100046;28;24434;-72
2022/12/18 09:15:46;;;;;;;48.40;32.88;;;;;;;-6.37;100.00;96824.06;5099094;28;24445;-73
2022/12/18 09:18:13;;;;;;;44.25;31.67;;;;;;;-6.35;100.00;96824.94;5099255;28;24992;-73
2022/12/18 09:20:40;;;;;;;44.97;32.13;;;;;;;-6.28;100.00;96829.28;5100438;28;24430;-72
2022/12/18 09:23:08;;;;;;;45.78;32.67;;;;;;;-6.27;100.00;96820.03;5099726;28;24449;-72
2022/12/18 09:25:36;;;;;;;44.15;32.58;;;;;;;-6.11;100.00;96830.47;5096087;28;24513;-73
2022/12/18 09:28:05;;;;;;;46.70;31.90;;;;;;;-6.22;100.00;96826.03;5102294;28;24442;-73
2022/12/18 09:30:33;;;;;;;48.58;32.13;;;;;;;-6.41;100.00;96827.34;5107675;28;24437;-73
2022/12/18 09:32:59;;;;;;;48.65;32.17;;;;;;;-6.18;100.00;96821.06;5096745;28;25056;-73
2022/12/18 09:35:27;;;;;;;44.42;32.60;;;;;;;-6.07;100.00;96820.44;5083160;28;24438;-73
2022/12/18 09:37:54;;;;;;;49.13;31.55;;;;;;;-5.69;100.00;96836.22;5101240;28;24438;-72
2022/12/18 09:40:23;;;;;;;45.53;32.35;;;;;;;-5.94;100.00;96828.22;5090391;28;24433;-72
2022/12/18 09:42:54;;;;;;;45.67;31.60;;;;;;;-5.90;100.00;96831.63;5093489;28;24434;-73
2022/12/18 09:45:22;;;;;;;49.80;32.67;;;;;;;-5.94;100.00;96830.75;5078918;28;25056;-73
2022/12/18 09:47:51;;;;;;;49.78;33.47;;;;;;;-5.92;100.00;96834.13;5091055;28;24430;-73
2022/12/18 09:50:26;;;;;;;48.30;34.10;;;;;;;-5.89;100.00;96838.41;5098658;28;24444;-73
2022/12/18 09:52:57;;;;;;;48.23;34.17;;;;;;;-5.95;100.00;96824.03;5098947;28;24441;-72
2022/12/18 09:55:32;;;;;;;51.90;34.20;;;;;;;-5.79;100.00;96829.31;5096976;28;24421;-73
2022/12/18 09:58:06;;;;;;;51.93;33.40;;;;;;;-5.87;100.00;96829.16;5099176;28;24535;-73
2022/12/18 10:00:33;;;;;;;46.15;32.10;;;;;;;-5.89;100.00;96836.72;5100173;28;24437;-72
2022/12/18 10:03:09;;;;;;;47.27;33.13;;;;;;;-5.85;100.00;96837.63;5092842;28;24448;-73
2022/12/18 10:05:45;;;;;;;54.00;32.90;;;;;;;-5.86;100.00;96830.84;5090161;28;24437;-73
2022/12/18 10:08:18;;;;;;;50.38;32.38;;;;;;;-5.91;100.00;96835.84;5098344;28;24430;-73
2022/12/18 10:10:49;;;;;;;50.95;32.38;;;;;;;-5.84;100.00;96834.28;5088802;28;24426;-73
2022/12/18 10:13:25;;;;;;;48.75;32.45;;;;;;;-5.82;100.00;96837.69;5089781;28;24801;-72
2022/12/18 10:16:06;;;;;;;49.70;33.03;;;;;;;-5.81;100.00;96838.53;5093826;28;24442;-72
2022/12/18 10:18:51;;;;;;;41.53;30.90;;;;;;;-5.67;100.00;96837.97;5097852;28;24424;-72
2022/12/18 10:21:21;;;;;;;46.97;32.77;;;;;;;-5.78;100.00;96836.03;5084688;28;24433;-72
2022/12/18 10:23:56;;;;;;;47.13;30.67;;;;;;;-5.63;100.00;96837.19;5088053;28;24445;-72
2022/12/18 10:26:22;;;;;;;48.83;32.90;;;;;;;-5.64;100.00;96834.63;5097278;28;24436;-72
2022/12/18 10:28:52;;;;;;;55.40;34.38;;;;;;;-5.75;100.00;96826.00;5088317;28;24449;-72
2022/12/18 10:31:21;;;;;;;47.97;33.78;;;;;;;-5.69;100.00;96832.03;5099855;28;24461;-72
2022/12/18 10:33:47;;;;;;;48.60;33.50;;;;;;;-5.68;100.00;96831.19;5095830;28;24473;-72
2022/12/18 10:36:14;;;;;;;43.83;32.97;;;;;;;-5.53;100.00;96834.81;5097759;28;24448;-72
2022/12/18 10:38:41;;;;;;;51.28;34.47;;;;;;;-5.62;100.00;96838.88;5085581;28;24437;-72
2022/12/18 10:41:26;;;;;;;48.50;34.38;;;;;;;-5.69;100.00;96826.97;5089923;28;24435;-72
2022/12/18 10:44:12;;;;;;;48.83;32.58;;;;;;;-5.63;100.00;96832.13;5094335;28;24449;-72
2022/12/18 10:46:41;;;;;;;51.50;35.55;;;;;;;-5.62;100.00;96833.81;5087634;28;25027;-72
2022/12/18 10:49:20;;;;;;;47.83;33.78;;;;;;;-5.68;100.00;96832.88;5097607;28;24438;-71
2022/12/18 10:51:46;;;;;;;46.40;33.17;;;;;;;-5.55;100.00;96827.22;5097530;28;24457;-71
2022/12/18 10:54:16;;;;;;;51.80;34.53;;;;;;;-5.38;100.00;96828.34;5091432;28;24998;-72
2022/12/18 10:56:43;;;;;;;48.17;34.10;;;;;;;-5.36;100.00;96821.63;5094505;28;24457;-72
2022/12/18 10:59:12;;;;;;;50.57;33.53;;;;;;;-5.49;100.00;96819.72;5094605;28;24445;-72
2022/12/18 11:01:50;;;;;;;51.13;34.95;;;;;;;-5.36;100.00;96820.78;5096556;28;24437;-71
2022/12/18 11:04:19;;;;;;;48.33;35.30;;;;;;;-5.26;100.00;96825.16;5095654;28;24449;-71
2022/12/18 11:06:59;;;;;;;46.03;33.30;;;;;;;-5.09;100.00;96814.47;5086094;28;24486;-71
2022/12/18 11:09:27;;;;;;;49.65;35.08;;;;;;;-5.12;100.00;96818.66;5091233;28;24429;-72
2022/12/18 11:11:55;;;;;;;51.53;35.78;;;;;;;-5.13;100.00;96819.47;5105404;28;24486;-72
2022/12/18 11:14:26;;;;;;;53.38;35.38;;;;;;;-5.04;100.00;96803.59;5096777;28;24803;-72
2022/12/18 11:16:54;;;;;;;51.22;35.45;;;;;;;-5.11;100.00;96824.56;5102492;28;24433;-71